Relevés horaires Eggishorn (Suisse)


Relevés horaires à Eggishorn - Jeudi 26 Mars 2015
Heure UTC1 Température [°C] Vent [km/h] Hum. [%] Pres.4 [hPa] Visi. [Km] Nébu. [octa] Préc.5 [mm] Cond.
2m. Res. Ros. Dir.2 Vit. Moy. Raf.3
23:00 -7.5 -13.2 -7.6 O 13.0 13.0 20.4 99 700(0.3/3h) -- -- -- --
22:00 -7.3 -10.2 -7.8 O 5.6 13.0 18.5 96 700(0.6/3h) -- -- -- --
21:00 -7.1 -13.5 -7.4 O 16.7 16.7 20.4 98 700(0.8/3h) -- -- -- --
20:00 -7.0 -11.4 -8.2 O 9.3 9.3 20.4 91 700(0.9/3h) -- -- -- --
19:00 -6.9 -11.9 -6.9 NNO 11.1 11.1 18.5 100 700(0.9/3h) -- -- -- --
18:00 -6.3 -9.1 -7.1 O 5.6 16.7 22.2 94 700(0.7/3h) -- -- -- --
17:00 -6.0 -10.3 -6.0 ONO 9.3 16.7 22.2 100 700(0.5/3h) -- -- -- --
16:00 -5.4 -11.4 -5.4 OSO 16.7 16.7 20.4 100 700(0.4/3h) -- -- -- --
15:00 -4.4 -6.9 -6.2 OSO 5.6 9.3 14.8 87 700(0.6/3h) -- -- -- --
14:00 -4.5 -4.5 -4.9 OSO 3.7 5.6 13.0 97 700(0.4/3h) -- -- -- --
13:00 -3.7 -6.9 -4.9 SE 7.4 9.3 14.8 91 700(0.4/3h) -- -- -- --
12:00 -3.7 -6.1 -6.9 SSE 5.6 11.1 16.7 78 700(0.3/3h) -- -- -- --
11:00 -4.0 -4.0 -6.2 S 3.7 5.6 9.3 85 700(0.7/3h) -- -- -- --
10:00 -5.5 -8.1 -7.9 E 5.6 9.3 14.8 83 700(0.9/3h) -- -- -- --
09:00 -5.6 -8.3 -7.8 ESE 5.6 11.1 16.7 84 700(1.1/3h) -- -- -- --
08:00 -6.6 -6.6 -8.5 E 3.7 11.1 16.7 86 700(1.2/3h) -- -- -- --
07:00 -8.2 -12.1 -8.5 O 7.4 7.4 13.0 98 700(1.1/3h) -- -- -- --
06:00 -8.3 -11.4 -8.6 O 5.6 14.8 18.5 98 700(1.2/3h) -- -- -- --
05:00 -7.9 -7.9 -8.0 NO 3.7 5.6 7.4 99 700(0.8/3h) -- -- -- --
04:00 -3.8 -3.8 -6.9 NE 3.7 9.3 11.1 79 700(0.6/3h) -- -- -- --
03:00 -7.4 -11.2 -7.4 E 7.4 14.8 18.5 100 700(0.2/3h) -- -- -- --
02:00 -7.0 -9.9 -7.0 NNE 5.6 14.8 16.7 100 700(0.2/3h) -- -- -- --
01:00 -6.0 -9.5 -7.2 NE 7.4 7.4 11.1 91 700(0.3/3h) -- -- -- --
00:00 -7.0 -7.0 -7.0 N 3.7 11.1 18.5 100 700(0.4/3h) -- -- -- --

1 Coordinated Universal Time. Actuellement il est 23:00 locale et 21:00 UTC.

2 Le vent souffle depuis la direction indiquée vers la direction oposée.

3 Les rafales max. sont disponible 40 min après l'heure du relevé.

4 Pour les stations d'altitude (plus de 600m) le géopotentiel du niveau le plus proche de la pression obligatoire est indiqué.

5 Les stations disposant d'un diffuseur peuvent indiquer "trace". Cela signifie que des précipitations ont touchés le sol mais que la quantité est inférieure à 0.1 mm.

Copyright

Les données affichées sur cette page sont la propriété exclusive de Météo Suisse.

Récapitulatif de la journée
Température [°C] Vent [km/h] Ensoleillement4 [h] Precipitations totale5 [mm] Pression [Hpa]
Min1 Max.2 Moy.3 Max. Min Max.
-8.9 -3.4 11.3 22.2 7 h 36 min 0 700.0 700.0

1 Température minimale relevée entre 18:00 UTC la veille et 18:00 UTC le jour donné.

2 Température maximale relevée entre 06:00 UTC le jour donné et 06:00 UTC le lendemain.

3 Vent moyen de la journée basé sur les relevés horaires.

4 Ensoleillement en heures relevé entre 06:00 UTC la veille et 06:00 UTC le jour donné.

5 Précipitations totales tombées entre 06:00 UTC la jour donné et 06:00 UTC le lendemain.

Graphiques horaires